Time;durP1;ratioP1;P1;durP2;ratioP2;P2;SDS_P1;SDS_P2;PMS_P1;PMS_P2;Temp;Humidity;BMP_temperature;BMP_pressure;BME280_temperature;BME280_humidity;BME280_pressure;Samples;Min_cycle;Max_cycle;Signal;HPM_P1;HPM_P2
2021/12/19 00:01:11;;;;;;;31.30;11.85;;;;;;;;;;4986408;28;20919;-74
2021/12/19 00:09:05;;;;;;;45.65;18.83;;;;;;;;;;5002663;28;20120;-74
2021/12/19 00:11:32;;;;;;;62.88;22.63;;;;;;;;;;5001810;28;20042;-74
2021/12/19 00:13:58;;;;;;;53.33;20.65;;;;;;;;;;5002552;28;20030;-75
2021/12/19 00:16:24;;;;;;;53.25;19.98;;;;;;;;;;5003688;28;20040;-74
2021/12/19 00:18:50;;;;;;;44.33;17.25;;;;;;;;;;5003610;28;20045;-74
2021/12/19 00:21:17;;;;;;;29.10;13.15;;;;;;;;;;4986404;28;20025;-74
2021/12/19 00:23:45;;;;;;;39.92;13.52;;;;;;;;;;5002053;28;20057;-74
2021/12/19 00:26:12;;;;;;;35.90;15.40;;;;;;;;;;5002327;28;20034;-74
2021/12/19 00:28:38;;;;;;;28.02;13.43;;;;;;;;;;4986048;28;20491;-74
2021/12/19 00:31:04;;;;;;;34.30;15.80;;;;;;;;;;5001752;28;20034;-74
2021/12/19 00:33:30;;;;;;;19.45;9.55;;;;;;;;;;5002703;28;20033;-74
2021/12/19 00:35:56;;;;;;;30.05;14.32;;;;;;;;;;5001977;28;20038;-75
2021/12/19 00:38:21;;;;;;;38.97;16.42;;;;;;;;;;5003619;28;20036;-75
2021/12/19 00:40:47;;;;;;;43.42;17.60;;;;;;;;;;5001995;28;20395;-75
2021/12/19 00:43:23;;;;;;;52.40;20.52;;;;;;;;;;5001430;28;20037;-75
2021/12/19 00:45:51;;;;;;;53.47;22.40;;;;;;;;;;5001242;28;20069;-75
2021/12/19 00:48:16;;;;;;;38.58;16.33;;;;;;;;;;5001984;28;20030;-75
2021/12/19 00:50:42;;;;;;;46.72;17.58;;;;;;;;;;4985432;28;20521;-75
2021/12/19 00:53:08;;;;;;;48.03;17.42;;;;;;;;;;5001210;28;20034;-75
2021/12/19 00:55:34;;;;;;;32.95;14.50;;;;;;;;;;4984881;28;20045;-75
2021/12/19 00:58:00;;;;;;;19.50;9.98;;;;;;;;;;5001777;28;20034;-75
2021/12/19 01:00:28;;;;;;;47.13;17.77;;;;;;;;;;4984965;28;20096;-75
2021/12/19 01:02:57;;;;;;;26.73;11.38;;;;;;;;;;5002904;28;20038;-75
2021/12/19 01:05:23;;;;;;;56.40;19.17;;;;;;;;;;4984708;28;20025;-75
2021/12/19 01:07:49;;;;;;;42.95;18.05;;;;;;;;;;4985220;28;20025;-75
2021/12/19 01:10:15;;;;;;;44.63;18.92;;;;;;;;;;5003169;28;20052;-75
2021/12/19 01:12:40;;;;;;;40.80;16.10;;;;;;;;;;5001286;28;20458;-75
2021/12/19 01:15:07;;;;;;;26.35;10.40;;;;;;;;;;5000658;28;20030;-75
2021/12/19 01:17:33;;;;;;;44.78;17.05;;;;;;;;;;4984512;28;20048;-75
2021/12/19 01:19:59;;;;;;;35.78;15.07;;;;;;;;;;5001381;28;20038;-75
2021/12/19 01:22:24;;;;;;;42.25;15.95;;;;;;;;;;5002733;28;20068;-75
2021/12/19 01:24:50;;;;;;;52.13;19.13;;;;;;;;;;4984035;28;20062;-75
2021/12/19 01:27:15;;;;;;;53.35;20.02;;;;;;;;;;5001414;28;20033;-75
2021/12/19 01:29:40;;;;;;;30.23;12.77;;;;;;;;;;5002357;28;20057;-75
2021/12/19 01:32:06;;;;;;;25.38;10.75;;;;;;;;;;5002407;28;20041;-75
2021/12/19 01:34:32;;;;;;;27.02;11.60;;;;;;;;;;4984624;28;20047;-75
2021/12/19 01:36:57;;;;;;;35.10;14.98;;;;;;;;;;5001140;28;20117;-75
2021/12/19 01:39:23;;;;;;;35.03;14.50;;;;;;;;;;5000056;28;20037;-75
2021/12/19 01:41:54;;;;;;;46.13;17.83;;;;;;;;;;5002012;28;20030;-75
2021/12/19 01:44:20;;;;;;;14.55;7.15;;;;;;;;;;5000520;28;20044;-75
2021/12/19 01:46:46;;;;;;;30.30;13.85;;;;;;;;;;5000916;28;20137;-74
2021/12/19 01:49:16;;;;;;;34.53;14.68;;;;;;;;;;5001251;28;20061;-75
2021/12/19 01:51:43;;;;;;;33.55;12.60;;;;;;;;;;5001575;28;20511;-75
2021/12/19 01:54:09;;;;;;;22.33;9.35;;;;;;;;;;4999359;28;20652;-75
2021/12/19 01:56:35;;;;;;;27.67;10.95;;;;;;;;;;4983298;28;20069;-74
2021/12/19 01:59:01;;;;;;;40.75;14.18;;;;;;;;;;4982757;28;20022;-75
2021/12/19 02:01:26;;;;;;;34.78;13.82;;;;;;;;;;4999822;28;20030;-75
2021/12/19 02:03:52;;;;;;;24.88;10.50;;;;;;;;;;4999309;28;20124;-74
2021/12/19 02:06:17;;;;;;;39.97;15.05;;;;;;;;;;5000991;28;20092;-74
2021/12/19 02:08:44;;;;;;;45.30;15.00;;;;;;;;;;5001289;28;20044;-75
2021/12/19 02:11:10;;;;;;;33.88;13.35;;;;;;;;;;4983456;28;20701;-75
2021/12/19 02:13:35;;;;;;;45.95;15.68;;;;;;;;;;5000343;28;20048;-76
2021/12/19 02:16:01;;;;;;;42.65;15.48;;;;;;;;;;5000543;28;20446;-75
2021/12/19 02:18:27;;;;;;;43.55;16.50;;;;;;;;;;5000563;28;20034;-75
2021/12/19 02:20:58;;;;;;;27.27;11.18;;;;;;;;;;5000529;28;20053;-75
2021/12/19 02:23:26;;;;;;;42.80;16.70;;;;;;;;;;4999302;28;20168;-75
2021/12/19 02:25:53;;;;;;;33.83;12.73;;;;;;;;;;4983733;28;20036;-75
2021/12/19 02:28:20;;;;;;;41.50;15.48;;;;;;;;;;4984289;28;20399;-75
2021/12/19 02:30:46;;;;;;;29.58;11.25;;;;;;;;;;4995875;28;20436;-75
2021/12/19 02:33:17;;;;;;;18.27;9.50;;;;;;;;;;4983692;28;20030;-75
2021/12/19 02:35:49;;;;;;;20.13;9.00;;;;;;;;;;4999010;28;20033;-75
2021/12/19 02:49:19;;;;;;;32.47;10.68;;;;;;;;;;5001528;28;20543;-75
2021/12/19 02:51:46;;;;;;;43.80;15.23;;;;;;;;;;4983273;28;20479;-75
2021/12/19 02:54:11;;;;;;;29.80;9.15;;;;;;;;;;5000186;28;20041;-75
2021/12/19 02:56:37;;;;;;;24.45;9.02;;;;;;;;;;5000869;28;20034;-75
2021/12/19 02:59:02;;;;;;;21.58;9.48;;;;;;;;;;4983432;28;20065;-74
2021/12/19 03:01:28;;;;;;;18.20;6.28;;;;;;;;;;4999601;28;20518;-74
2021/12/19 03:03:54;;;;;;;37.83;13.55;;;;;;;;;;4999688;28;20059;-74
2021/12/19 03:06:19;;;;;;;41.03;12.80;;;;;;;;;;4999905;28;20041;-74
2021/12/19 03:08:48;;;;;;;36.72;12.75;;;;;;;;;;4983249;28;20037;-74
2021/12/19 03:19:44;;;;;;;38.30;12.93;;;;;;;;;;4999529;28;20042;-75
2021/12/19 03:22:09;;;;;;;46.75;14.13;;;;;;;;;;5000798;28;20041;-75
2021/12/19 03:24:35;;;;;;;26.70;9.48;;;;;;;;;;4999445;28;20049;-75
2021/12/19 03:27:00;;;;;;;32.85;12.13;;;;;;;;;;4999351;28;20029;-75
2021/12/19 03:29:25;;;;;;;35.28;13.13;;;;;;;;;;4982349;28;20036;-75
2021/12/19 03:31:51;;;;;;;32.22;10.73;;;;;;;;;;4983000;28;20034;-75
2021/12/19 03:34:16;;;;;;;36.75;12.95;;;;;;;;;;4999398;28;20041;-75
2021/12/19 03:36:42;;;;;;;38.42;14.43;;;;;;;;;;4999307;28;20040;-75
2021/12/19 03:39:15;;;;;;;38.20;13.10;;;;;;;;;;4982000;28;20033;-75
2021/12/19 03:41:42;;;;;;;30.98;10.98;;;;;;;;;;4998768;28;20046;-75
2021/12/19 03:44:07;;;;;;;37.17;12.07;;;;;;;;;;4999521;28;20037;-75
2021/12/19 03:46:33;;;;;;;31.95;11.80;;;;;;;;;;4999779;28;20246;-75
2021/12/19 03:48:59;;;;;;;31.20;10.50;;;;;;;;;;5003137;28;20474;-76
2021/12/19 03:51:26;;;;;;;34.55;12.32;;;;;;;;;;5001897;28;20056;-75
2021/12/19 03:53:51;;;;;;;25.45;8.50;;;;;;;;;;5002668;28;20041;-75
2021/12/19 03:56:17;;;;;;;23.48;8.63;;;;;;;;;;5004263;28;20037;-75
2021/12/19 03:58:43;;;;;;;40.10;13.43;;;;;;;;;;5002468;28;20140;-74
2021/12/19 04:01:09;;;;;;;24.63;9.35;;;;;;;;;;5001948;28;20033;-75
2021/12/19 04:03:36;;;;;;;31.83;11.25;;;;;;;;;;5002486;28;20037;-75
2021/12/19 04:06:02;;;;;;;31.20;11.40;;;;;;;;;;5002495;28;20037;-75
2021/12/19 04:08:27;;;;;;;48.67;15.15;;;;;;;;;;5002705;28;20491;-75
2021/12/19 04:10:54;;;;;;;35.45;12.32;;;;;;;;;;4986299;28;20134;-75
2021/12/19 04:13:24;;;;;;;40.83;13.07;;;;;;;;;;5003361;28;20064;-75
2021/12/19 04:15:50;;;;;;;40.03;13.95;;;;;;;;;;5018815;28;20084;-75
2021/12/19 04:18:16;;;;;;;13.55;8.15;;;;;;;;;;4986104;28;20049;-74
2021/12/19 04:20:42;;;;;;;34.30;13.27;;;;;;;;;;4986263;28;20102;-75
2021/12/19 04:23:08;;;;;;;28.23;11.88;;;;;;;;;;5002992;28;20100;-75
2021/12/19 04:25:33;;;;;;;18.02;8.43;;;;;;;;;;5001939;28;20462;-75
2021/12/19 04:27:59;;;;;;;27.00;9.07;;;;;;;;;;5003840;28;20037;-75
2021/12/19 04:30:26;;;;;;;33.53;10.40;;;;;;;;;;5003272;28;20034;-75
2021/12/19 04:33:02;;;;;;;45.80;15.93;;;;;;;;;;5003874;28;20029;-76
2021/12/19 04:35:32;;;;;;;41.05;13.40;;;;;;;;;;4984607;28;20060;-76
2021/12/19 04:40:51;;;;;;;19.50;8.15;;;;;;;;;;5004147;28;20045;-75
2021/12/19 05:15:31;;;;;;;32.70;12.02;;;;;;;;;;5002352;28;20034;-75
2021/12/19 05:18:02;;;;;;;15.20;7.85;;;;;;;;;;5000480;28;20084;-74
2021/12/19 05:20:29;;;;;;;14.65;7.30;;;;;;;;;;5000915;28;20475;-75
2021/12/19 05:23:02;;;;;;;31.23;13.00;;;;;;;;;;4984867;28;20501;-75
2021/12/19 05:25:27;;;;;;;23.95;9.27;;;;;;;;;;5002257;28;20026;-75
2021/12/19 05:27:55;;;;;;;29.95;10.50;;;;;;;;;;5001154;28;20441;-75
2021/12/19 05:30:22;;;;;;;24.80;9.50;;;;;;;;;;5001301;28;20033;-75
2021/12/19 05:32:51;;;;;;;53.13;14.20;;;;;;;;;;4984763;28;20483;-75
2021/12/19 05:35:25;;;;;;;41.25;14.02;;;;;;;;;;4984317;28;20042;-75
2021/12/19 05:46:03;;;;;;;48.25;15.07;;;;;;;;;;5001916;28;20438;-75
2021/12/19 05:48:28;;;;;;;47.97;16.38;;;;;;;;;;5002377;28;20521;-75
2021/12/19 05:50:54;;;;;;;40.33;15.13;;;;;;;;;;4999343;28;20055;-75
2021/12/19 05:53:19;;;;;;;47.67;16.15;;;;;;;;;;5000780;28;20068;-76
2021/12/19 05:55:44;;;;;;;43.75;14.55;;;;;;;;;;5001806;28;20038;-75
2021/12/19 05:58:10;;;;;;;45.38;14.88;;;;;;;;;;5002212;28;20077;-76
2021/12/19 06:00:36;;;;;;;33.88;13.20;;;;;;;;;;5001656;28;20116;-75
2021/12/19 06:03:02;;;;;;;28.30;11.05;;;;;;;;;;4983377;28;20459;-75
2021/12/19 06:05:29;;;;;;;37.28;13.45;;;;;;;;;;5000041;28;20128;-75
2021/12/19 06:07:54;;;;;;;43.83;14.88;;;;;;;;;;5001800;28;20038;-75
2021/12/19 06:10:20;;;;;;;52.60;15.07;;;;;;;;;;5001885;28;20053;-76
2021/12/19 06:12:46;;;;;;;46.40;16.23;;;;;;;;;;5001518;28;20034;-75
2021/12/19 06:15:12;;;;;;;49.20;15.57;;;;;;;;;;4984261;28;20196;-76
2021/12/19 06:17:40;;;;;;;27.50;9.45;;;;;;;;;;5000491;28;20934;-75
2021/12/19 06:20:07;;;;;;;27.13;11.68;;;;;;;;;;4983910;28;20037;-75
2021/12/19 06:22:32;;;;;;;39.70;13.82;;;;;;;;;;4984028;28;20046;-76
2021/12/19 06:24:58;;;;;;;39.88;13.65;;;;;;;;;;5000693;28;20036;-76
2021/12/19 06:27:23;;;;;;;37.15;13.23;;;;;;;;;;5000588;28;20041;-75
2021/12/19 06:29:52;;;;;;;42.80;14.38;;;;;;;;;;4998453;28;20029;-76
2021/12/19 06:32:18;;;;;;;38.30;13.48;;;;;;;;;;4993633;28;20497;-75
2021/12/19 06:34:43;;;;;;;43.58;13.23;;;;;;;;;;4995822;28;20043;-76
2021/12/19 06:37:10;;;;;;;18.70;7.68;;;;;;;;;;4998019;28;20038;-75
2021/12/19 06:39:37;;;;;;;29.13;11.02;;;;;;;;;;4997526;28;20046;-73
2021/12/19 06:42:05;;;;;;;24.95;10.40;;;;;;;;;;4999294;28;20084;-74
2021/12/19 06:44:31;;;;;;;38.08;13.75;;;;;;;;;;4998350;28;20038;-73
2021/12/19 06:46:56;;;;;;;24.70;10.70;;;;;;;;;;4992961;28;20120;-73
2021/12/19 06:49:22;;;;;;;25.63;9.57;;;;;;;;;;4999092;28;20109;-72
2021/12/19 06:51:47;;;;;;;30.27;10.25;;;;;;;;;;4999097;28;20033;-72
2021/12/19 06:54:13;;;;;;;24.45;9.35;;;;;;;;;;4999135;28;20042;-73
2021/12/19 06:56:38;;;;;;;40.22;14.07;;;;;;;;;;4996934;28;20088;-73
2021/12/19 06:59:04;;;;;;;30.95;11.57;;;;;;;;;;4999504;28;20127;-74
2021/12/19 07:01:29;;;;;;;33.10;12.55;;;;;;;;;;4999497;28;20037;-74
2021/12/19 07:03:55;;;;;;;33.92;12.95;;;;;;;;;;4986929;28;20030;-75
2021/12/19 07:06:20;;;;;;;31.40;13.32;;;;;;;;;;4997866;28;20561;-74
2021/12/19 07:08:46;;;;;;;16.90;9.48;;;;;;;;;;4996819;28;20072;-76
2021/12/19 07:11:12;;;;;;;26.85;12.55;;;;;;;;;;4998606;28;20030;-76
2021/12/19 07:13:38;;;;;;;27.50;10.68;;;;;;;;;;4998597;28;20685;-76
2021/12/19 07:16:04;;;;;;;27.75;10.20;;;;;;;;;;4998273;28;20041;-75
2021/12/19 07:18:33;;;;;;;27.52;10.25;;;;;;;;;;4979948;28;20045;-75
2021/12/19 07:21:25;;;;;;;31.80;11.65;;;;;;;;;;4997115;28;20088;-74
2021/12/19 07:23:51;;;;;;;17.35;7.05;;;;;;;;;;5003989;28;20045;-74
2021/12/19 07:26:16;;;;;;;22.67;10.07;;;;;;;;;;5002176;28;20033;-75
2021/12/19 07:28:44;;;;;;;34.08;12.38;;;;;;;;;;5003724;28;20030;-75
2021/12/19 07:31:11;;;;;;;29.92;11.73;;;;;;;;;;5002907;28;20047;-75
2021/12/19 07:33:37;;;;;;;30.88;12.35;;;;;;;;;;4985825;28;20041;-76
2021/12/19 07:36:03;;;;;;;35.00;13.32;;;;;;;;;;5000553;28;20625;-75
2021/12/19 07:38:35;;;;;;;22.58;9.70;;;;;;;;;;5004272;28;20148;-74
2021/12/19 07:41:02;;;;;;;22.85;10.63;;;;;;;;;;4985207;28;20466;-74
2021/12/19 07:43:28;;;;;;;30.08;11.57;;;;;;;;;;5003066;28;20049;-73
2021/12/19 07:45:53;;;;;;;39.97;13.85;;;;;;;;;;5002380;28;20029;-74
2021/12/19 07:48:19;;;;;;;35.60;13.15;;;;;;;;;;5004658;28;20034;-74
2021/12/19 07:50:44;;;;;;;31.35;12.50;;;;;;;;;;5002779;28;20042;-73
2021/12/19 07:53:10;;;;;;;30.73;11.35;;;;;;;;;;5001960;28;20037;-74
2021/12/19 07:55:36;;;;;;;27.48;11.43;;;;;;;;;;4986099;28;20161;-74
2021/12/19 07:58:01;;;;;;;30.80;12.65;;;;;;;;;;5003713;28;20407;-74
2021/12/19 08:00:27;;;;;;;23.60;10.50;;;;;;;;;;5004002;28;20046;-74
2021/12/19 08:02:52;;;;;;;17.63;7.50;;;;;;;;;;5002357;28;20061;-73
2021/12/19 08:05:21;;;;;;;25.85;11.48;;;;;;;;;;5003929;28;20044;-73
2021/12/19 08:07:48;;;;;;;12.73;7.00;;;;;;;;;;5004310;28;20088;-72
2021/12/19 08:12:44;;;;;;;18.55;8.73;;;;;;;;;;5002521;28;21055;-72
2021/12/19 08:15:11;;;;;;;16.92;6.95;;;;;;;;;;5001497;28;20033;-73
2021/12/19 08:17:37;;;;;;;20.95;7.90;;;;;;;;;;5004048;28;20049;-73
2021/12/19 08:20:07;;;;;;;16.73;9.63;;;;;;;;;;5004464;28;20399;-75
2021/12/19 08:22:34;;;;;;;17.38;9.07;;;;;;;;;;5002236;28;20757;-75
2021/12/19 08:24:59;;;;;;;14.38;8.27;;;;;;;;;;5001581;28;20034;-73
2021/12/19 08:27:26;;;;;;;14.70;8.57;;;;;;;;;;5002536;28;20512;-73
2021/12/19 08:29:54;;;;;;;13.40;6.18;;;;;;;;;;5002793;28;20038;-72
2021/12/19 08:32:20;;;;;;;9.77;6.75;;;;;;;;;;5002234;28;20030;-73
2021/12/19 08:34:46;;;;;;;12.60;7.32;;;;;;;;;;4984703;28;20072;-71
2021/12/19 08:37:12;;;;;;;10.77;6.35;;;;;;;;;;5002811;28;20077;-71
2021/12/19 08:39:38;;;;;;;20.00;9.85;;;;;;;;;;5003307;28;20038;-71
2021/12/19 08:42:06;;;;;;;17.58;9.73;;;;;;;;;;4985863;28;20030;-73
2021/12/19 08:44:32;;;;;;;18.13;10.27;;;;;;;;;;5018367;28;20105;-71
2021/12/19 08:46:58;;;;;;;16.52;9.50;;;;;;;;;;4999185;28;20704;-72
2021/12/19 08:49:24;;;;;;;9.88;6.20;;;;;;;;;;4983241;28;20117;-73
2021/12/19 08:51:49;;;;;;;15.27;9.10;;;;;;;;;;5001072;28;20036;-71
2021/12/19 08:54:15;;;;;;;15.88;9.48;;;;;;;;;;5000231;28;20367;-74
2021/12/19 08:56:40;;;;;;;13.27;8.27;;;;;;;;;;4999893;28;20050;-72
2021/12/19 08:59:06;;;;;;;16.75;7.68;;;;;;;;;;5001988;28;20037;-74
2021/12/19 09:01:32;;;;;;;18.08;10.43;;;;;;;;;;4982554;28;20038;-73
2021/12/19 09:03:58;;;;;;;18.02;10.32;;;;;;;;;;4984669;28;20077;-73
2021/12/19 09:06:24;;;;;;;17.95;10.40;;;;;;;;;;5001409;28;20048;-74
2021/12/19 09:08:49;;;;;;;16.88;8.80;;;;;;;;;;5000302;28;20038;-74
2021/12/19 09:11:18;;;;;;;17.92;10.15;;;;;;;;;;5001352;28;20026;-73
2021/12/19 09:13:44;;;;;;;7.70;5.38;;;;;;;;;;4984048;28;20993;-73
2021/12/19 09:16:09;;;;;;;14.68;8.98;;;;;;;;;;5000660;28;20033;-72
2021/12/19 09:18:35;;;;;;;16.17;9.50;;;;;;;;;;5000536;28;20060;-73
2021/12/19 09:21:00;;;;;;;15.85;9.05;;;;;;;;;;4999271;28;20053;-72
2021/12/19 09:23:27;;;;;;;14.40;9.10;;;;;;;;;;5001607;28;20410;-72
2021/12/19 09:25:53;;;;;;;15.25;8.98;;;;;;;;;;5001740;28;20504;-72
2021/12/19 09:28:18;;;;;;;15.77;9.18;;;;;;;;;;5000652;28;20041;-74
2021/12/19 09:30:45;;;;;;;16.15;9.93;;;;;;;;;;4999945;28;20278;-73
2021/12/19 09:33:10;;;;;;;14.57;7.22;;;;;;;;;;5001291;28;20061;-74
2021/12/19 09:35:36;;;;;;;12.05;8.30;;;;;;;;;;4984324;28;20366;-74
2021/12/19 09:38:04;;;;;;;13.25;7.80;;;;;;;;;;5001192;28;20048;-74
2021/12/19 09:40:35;;;;;;;10.93;6.85;;;;;;;;;;5000817;28;20088;-74
2021/12/19 09:43:11;;;;;;;9.88;7.03;;;;;;;;;;5000317;28;20038;-74
2021/12/19 09:45:37;;;;;;;13.07;8.88;;;;;;;;;;5000492;28;20091;-73
2021/12/19 09:48:03;;;;;;;10.32;6.93;;;;;;;;;;5001057;28;20037;-73
2021/12/19 09:50:30;;;;;;;14.13;8.30;;;;;;;;;;5000934;28;20029;-74
2021/12/19 09:52:55;;;;;;;16.25;9.10;;;;;;;;;;4984005;28;20032;-76
2021/12/19 09:55:22;;;;;;;15.57;9.13;;;;;;;;;;4984754;28;20038;-73
2021/12/19 09:57:52;;;;;;;14.57;9.48;;;;;;;;;;4998630;28;20037;-75
2021/12/19 10:00:20;;;;;;;16.52;10.52;;;;;;;;;;5000698;28;20116;-73
2021/12/19 10:02:46;;;;;;;14.85;9.52;;;;;;;;;;5001084;28;20034;-73
2021/12/19 10:05:24;;;;;;;14.35;9.57;;;;;;;;;;5000174;28;20488;-74
2021/12/19 10:07:56;;;;;;;14.02;8.63;;;;;;;;;;5001227;28;20399;-74
2021/12/19 10:13:31;;;;;;;9.88;6.00;;;;;;;;;;4996049;28;20053;-76
2021/12/19 10:15:56;;;;;;;13.77;9.27;;;;;;;;;;4999188;28;20030;-77
2021/12/19 10:18:22;;;;;;;9.18;6.20;;;;;;;;;;5001486;28;20060;-75
2021/12/19 10:20:53;;;;;;;10.20;6.82;;;;;;;;;;5001065;28;20104;-76
2021/12/19 10:23:25;;;;;;;7.45;5.57;;;;;;;;;;4999951;28;20038;-74
2021/12/19 10:26:03;;;;;;;13.93;9.35;;;;;;;;;;4998611;28;21188;-75
2021/12/19 10:28:29;;;;;;;15.85;8.88;;;;;;;;;;5000964;28;20037;-77
2021/12/19 10:30:56;;;;;;;12.07;7.38;;;;;;;;;;4982859;28;20034;-75
2021/12/19 10:33:26;;;;;;;15.23;9.20;;;;;;;;;;4998672;28;20036;-76
2021/12/19 10:35:54;;;;;;;10.02;6.95;;;;;;;;;;4999445;28;20410;-75
2021/12/19 10:38:25;;;;;;;12.95;8.65;;;;;;;;;;5000576;28;20598;-75
2021/12/19 10:40:57;;;;;;;10.80;7.18;;;;;;;;;;5000652;28;20037;-74
2021/12/19 10:43:27;;;;;;;9.77;7.07;;;;;;;;;;4998257;28;20038;-74
2021/12/19 10:45:55;;;;;;;13.20;8.75;;;;;;;;;;4982658;28;20461;-74
2021/12/19 10:48:30;;;;;;;7.35;5.70;;;;;;;;;;4999500;28;20041;-74
2021/12/19 10:51:02;;;;;;;10.88;6.88;;;;;;;;;;5000311;28;20029;-74
2021/12/19 10:53:32;;;;;;;8.70;5.27;;;;;;;;;;5000229;28;20030;-73
2021/12/19 10:55:58;;;;;;;6.70;4.43;;;;;;;;;;4999912;28;20861;-73
2021/12/19 10:58:43;;;;;;;9.55;5.75;;;;;;;;;;4997544;28;20037;-74
2021/12/19 11:01:14;;;;;;;9.45;4.15;;;;;;;;;;4998990;28;20062;-74
2021/12/19 11:03:44;;;;;;;9.55;6.82;;;;;;;;;;5000234;28;20492;-74
2021/12/19 11:06:21;;;;;;;13.50;8.30;;;;;;;;;;4982845;28;20548;-76
2021/12/19 11:08:47;;;;;;;7.50;4.82;;;;;;;;;;4998984;28;20041;-76
2021/12/19 11:11:29;;;;;;;10.82;6.95;;;;;;;;;;4998975;28;20038;-75
2021/12/19 11:13:55;;;;;;;8.15;5.78;;;;;;;;;;4998461;28;20121;-73
2021/12/19 11:16:21;;;;;;;10.35;7.20;;;;;;;;;;4981878;28;20165;-73
2021/12/19 11:18:48;;;;;;;8.52;5.95;;;;;;;;;;4991832;28;20030;-74
2021/12/19 11:21:14;;;;;;;11.45;6.55;;;;;;;;;;4997903;28;20104;-72
2021/12/19 11:23:40;;;;;;;9.23;6.53;;;;;;;;;;4998861;28;20042;-74
2021/12/19 11:26:05;;;;;;;11.93;7.07;;;;;;;;;;4998790;28;20041;-75
2021/12/19 11:28:31;;;;;;;7.93;5.60;;;;;;;;;;4999286;28;20144;-76
2021/12/19 11:30:57;;;;;;;9.65;6.18;;;;;;;;;;4998721;28;20545;-76
2021/12/19 11:33:39;;;;;;;12.07;5.30;;;;;;;;;;4999758;28;20056;-75
2021/12/19 11:36:06;;;;;;;;;;;;;;;;;;4998703;28;20038;-76
2021/12/19 11:38:32;;;;;;;7.57;5.30;;;;;;;;;;4999525;28;19921;-76
2021/12/19 11:41:09;;;;;;;9.05;5.93;;;;;;;;;;5000135;28;20033;-76
2021/12/19 11:43:40;;;;;;;5.15;4.13;;;;;;;;;;4997220;28;20117;-75
2021/12/19 11:46:16;;;;;;;6.67;4.97;;;;;;;;;;4996523;28;20046;-76
2021/12/19 11:48:42;;;;;;;4.72;3.58;;;;;;;;;;4997174;28;20277;-76
2021/12/19 11:51:17;;;;;;;8.35;5.13;;;;;;;;;;4998017;28;20087;-74
2021/12/19 11:53:43;;;;;;;4.43;3.80;;;;;;;;;;4991582;28;20269;-74
2021/12/19 11:56:17;;;;;;;7.10;4.38;;;;;;;;;;4996513;28;20127;-75
2021/12/19 11:58:50;;;;;;;5.68;4.43;;;;;;;;;;4998374;28;20038;-76
2021/12/19 12:01:30;;;;;;;6.45;4.32;;;;;;;;;;4999049;28;20030;-75
2021/12/19 12:04:03;;;;;;;9.13;5.95;;;;;;;;;;4981328;28;20099;-75
2021/12/19 12:06:31;;;;;;;8.45;5.43;;;;;;;;;;4999457;28;20069;-76
2021/12/19 12:09:08;;;;;;;7.35;4.30;;;;;;;;;;5003394;28;20112;-76
2021/12/19 12:11:37;;;;;;;4.75;3.72;;;;;;;;;;5002769;28;20116;-76
2021/12/19 12:14:29;;;;;;;5.05;3.72;;;;;;;;;;5004232;28;20033;-76
2021/12/19 12:17:13;;;;;;;5.90;4.28;;;;;;;;;;5002186;28;20032;-76
2021/12/19 12:19:43;;;;;;;6.30;4.88;;;;;;;;;;5003996;28;21091;-76
2021/12/19 12:22:39;;;;;;;2.92;2.35;;;;;;;;;;4985846;28;20042;-76
2021/12/19 12:25:16;;;;;;;5.70;4.10;;;;;;;;;;5003758;28;20030;-77
2021/12/19 12:27:55;;;;;;;6.93;5.22;;;;;;;;;;5002532;28;20513;-76
2021/12/19 12:30:30;;;;;;;7.75;5.22;;;;;;;;;;5003862;28;20084;-76
2021/12/19 12:32:58;;;;;;;7.40;5.00;;;;;;;;;;5003762;28;20038;-76
2021/12/19 12:35:25;;;;;;;5.63;4.78;;;;;;;;;;5002487;28;20041;-76
2021/12/19 12:37:51;;;;;;;5.72;3.97;;;;;;;;;;5003421;28;20033;-76
2021/12/19 12:41:01;;;;;;;8.73;5.43;;;;;;;;;;5003538;28;20041;-77
2021/12/19 12:43:31;;;;;;;5.03;3.75;;;;;;;;;;5001959;28;20037;-77
2021/12/19 12:46:02;;;;;;;7.32;3.08;;;;;;;;;;5002354;28;20041;-77
2021/12/19 12:48:54;;;;;;;3.97;3.22;;;;;;;;;;5002901;28;20049;-76
2021/12/19 12:51:34;;;;;;;4.55;3.72;;;;;;;;;;4998178;28;20091;-76
2021/12/19 12:54:04;;;;;;;5.35;3.20;;;;;;;;;;5003222;28;20038;-76
2021/12/19 12:56:35;;;;;;;3.85;3.17;;;;;;;;;;5002255;28;20104;-76
2021/12/19 12:59:03;;;;;;;3.80;2.53;;;;;;;;;;5002792;28;20101;-78
2021/12/19 13:01:46;;;;;;;2.75;2.35;;;;;;;;;;5002197;28;20036;-77
2021/12/19 13:04:23;;;;;;;8.27;4.65;;;;;;;;;;5003659;28;20112;-78
2021/12/19 13:07:09;;;;;;;3.33;2.47;;;;;;;;;;5003784;28;20026;-75
2021/12/19 13:09:56;;;;;;;4.25;3.35;;;;;;;;;;5001655;28;20034;-75
2021/12/19 13:12:26;;;;;;;3.13;2.58;;;;;;;;;;5002989;28;20029;-74
2021/12/19 13:14:52;;;;;;;2.47;2.20;;;;;;;;;;5003071;28;20033;-74
2021/12/19 13:17:28;;;;;;;2.92;2.45;;;;;;;;;;5003096;28;20030;-75
2021/12/19 13:20:03;;;;;;;2.83;2.30;;;;;;;;;;5001036;28;20033;-76
2021/12/19 13:22:38;;;;;;;5.10;3.05;;;;;;;;;;5000569;28;20034;-75
2021/12/19 13:25:42;;;;;;;5.60;3.08;;;;;;;;;;5001313;28;20084;-74
2021/12/19 13:28:13;;;;;;;3.22;2.50;;;;;;;;;;5001516;28;20113;-74
2021/12/19 13:30:42;;;;;;;4.15;2.78;;;;;;;;;;5002260;28;20037;-77
2021/12/19 13:33:16;;;;;;;2.33;1.83;;;;;;;;;;5000291;28;20037;-75
2021/12/19 13:35:43;;;;;;;3.50;2.20;;;;;;;;;;5001514;28;20152;-73
2021/12/19 13:38:14;;;;;;;4.57;2.75;;;;;;;;;;5002141;28;20542;-76
2021/12/19 13:40:44;;;;;;;2.88;2.45;;;;;;;;;;5001275;28;20391;-76
2021/12/19 13:43:19;;;;;;;5.57;4.07;;;;;;;;;;5001783;28;20025;-75
2021/12/19 13:46:05;;;;;;;12.90;7.43;;;;;;;;;;5000948;28;20042;-74
2021/12/19 13:48:36;;;;;;;9.80;5.78;;;;;;;;;;5002377;28;20100;-75
2021/12/19 13:51:13;;;;;;;15.90;8.80;;;;;;;;;;4997868;28;20038;-75
2021/12/19 13:53:42;;;;;;;17.25;9.15;;;;;;;;;;5000025;28;20479;-77
2021/12/19 13:56:11;;;;;;;17.58;9.65;;;;;;;;;;5000550;28;20041;-76
2021/12/19 13:58:40;;;;;;;18.20;9.70;;;;;;;;;;5000486;28;20042;-74
2021/12/19 14:01:11;;;;;;;15.20;8.27;;;;;;;;;;4999864;28;20505;-74
2021/12/19 14:03:47;;;;;;;11.75;6.68;;;;;;;;;;5000567;28;20049;-74
2021/12/19 14:06:14;;;;;;;18.58;10.13;;;;;;;;;;4999745;28;20033;-72
2021/12/19 14:08:40;;;;;;;13.00;8.15;;;;;;;;;;5000802;28;20056;-72
2021/12/19 14:11:06;;;;;;;18.98;9.55;;;;;;;;;;5001040;28;20029;-72
2021/12/19 14:13:35;;;;;;;20.15;12.27;;;;;;;;;;5000431;28;20070;-75
2021/12/19 14:16:06;;;;;;;17.80;9.43;;;;;;;;;;5000008;28;20042;-75
2021/12/19 14:18:37;;;;;;;15.33;8.47;;;;;;;;;;5001004;28;20034;-76
2021/12/19 14:21:04;;;;;;;17.15;9.15;;;;;;;;;;4983270;28;20061;-76
2021/12/19 14:23:37;;;;;;;18.65;10.25;;;;;;;;;;5000224;28;20549;-75
2021/12/19 14:26:02;;;;;;;18.25;10.68;;;;;;;;;;4999927;28;20069;-75
2021/12/19 14:28:32;;;;;;;20.45;11.27;;;;;;;;;;4998050;28;20125;-76
2021/12/19 14:31:04;;;;;;;21.50;10.73;;;;;;;;;;5000309;28;20029;-75
2021/12/19 14:33:38;;;;;;;16.58;9.82;;;;;;;;;;4982687;28;20053;-73
2021/12/19 14:36:09;;;;;;;20.05;11.05;;;;;;;;;;4999769;28;20109;-73
2021/12/19 14:38:36;;;;;;;25.80;12.50;;;;;;;;;;4997782;28;20048;-73
2021/12/19 14:41:05;;;;;;;22.38;11.57;;;;;;;;;;4998367;28;20540;-75
2021/12/19 14:43:33;;;;;;;22.42;11.38;;;;;;;;;;5000791;28;20037;-72
2021/12/19 14:46:01;;;;;;;22.75;12.35;;;;;;;;;;4998936;28;20665;-72
2021/12/19 14:48:34;;;;;;;22.48;11.75;;;;;;;;;;4997292;28;20056;-73
2021/12/19 14:51:05;;;;;;;18.30;10.52;;;;;;;;;;5011397;28;20486;-74
2021/12/19 14:53:33;;;;;;;20.40;10.35;;;;;;;;;;4999032;28;20410;-74
2021/12/19 14:56:00;;;;;;;13.23;7.82;;;;;;;;;;4998705;28;20030;-74
2021/12/19 14:58:27;;;;;;;20.20;10.15;;;;;;;;;;4999458;28;20033;-72
2021/12/19 15:01:01;;;;;;;18.73;10.02;;;;;;;;;;5000108;28;20029;-73
2021/12/19 15:03:28;;;;;;;20.60;11.35;;;;;;;;;;5000272;28;20487;-74
2021/12/19 15:05:55;;;;;;;24.42;10.23;;;;;;;;;;4999359;28;20402;-73
2021/12/19 15:08:26;;;;;;;19.90;10.93;;;;;;;;;;5000343;28;20057;-73
2021/12/19 15:10:52;;;;;;;21.92;10.65;;;;;;;;;;4999162;28;20038;-73
2021/12/19 15:13:21;;;;;;;19.17;10.27;;;;;;;;;;4999271;28;20593;-72
2021/12/19 15:15:48;;;;;;;21.50;11.35;;;;;;;;;;4980675;28;20068;-73
2021/12/19 15:18:13;;;;;;;21.58;11.20;;;;;;;;;;4998670;28;20402;-73
2021/12/19 15:20:39;;;;;;;24.15;13.07;;;;;;;;;;4997733;28;20076;-73
2021/12/19 15:23:04;;;;;;;25.83;13.30;;;;;;;;;;4998296;28;20034;-74
2021/12/19 15:25:30;;;;;;;22.30;11.70;;;;;;;;;;4998717;28;20033;-73
2021/12/19 15:27:56;;;;;;;26.98;13.38;;;;;;;;;;4981132;28;20110;-73
2021/12/19 15:30:21;;;;;;;30.08;12.85;;;;;;;;;;4984998;28;20037;-73
2021/12/19 15:32:47;;;;;;;29.88;12.35;;;;;;;;;;4998571;28;20092;-73
2021/12/19 15:35:13;;;;;;;27.33;13.27;;;;;;;;;;4999050;28;20092;-75
2021/12/19 15:37:39;;;;;;;25.02;12.32;;;;;;;;;;4999066;28;20065;-75
2021/12/19 15:40:06;;;;;;;23.88;12.80;;;;;;;;;;4998463;28;20144;-75
2021/12/19 15:42:32;;;;;;;29.10;14.70;;;;;;;;;;4998975;28;20569;-75
2021/12/19 15:44:57;;;;;;;31.38;14.18;;;;;;;;;;5002734;28;20053;-75
2021/12/19 15:47:23;;;;;;;27.58;14.38;;;;;;;;;;5002823;28;20060;-75